»·PEaware :: N900CR KSBA-KFAT

N900CR :: KSBA-KFAT

FLIGHT INFORMATION

Flight Status: Arrived
Operator: Privately registered:
United States
More flights under this callsign
Pilot: Carl R. (23234)
Aircraft: SOCATA TBM-900
(TBM9)
More flights by this aircraft type
Origin: KSBA Santa Barbara Mun
United States
Destination: KFAT Fresno Yosemite Intl
United States
More flights between these airports :: More routes between these airports
Route: +GVO TTE ALTTA8
File this flight plan on PilotEdge
Remarks:
Altitude:
(Current/Filed)
28,000ft
Speed:
(Current/Filed)
350kts
Departed: 29-Jan-19 11:38 AM
Arrived: 29-Jan-19 12:35 PM
Distance/Time
Traveled:
141nm/0:57
Distance/Time
To Go:
Arrived

Flight Plot

Page will automatically refresh every two minutes.

Flight plan parsing failed; only flown route is shown


Map Options




Map Legend


Flown Route
Filed Route
Departure Airport
Arrival Airport
Navaid (VOR, NDB)
Fix

Horizontal Profiles

Position Reports

Time Latitude Longitude Heading Altitude Ground
Speed
29-Jan-19 11:22 34.432615 -119.834915 72 16ft 0kts
29-Jan-19 11:22 34.432615 -119.834915 72 16ft 0kts
29-Jan-19 11:23 34.432615 -119.834915 72 16ft 0kts
29-Jan-19 11:24 34.432615 -119.834915 72 16ft 0kts
29-Jan-19 11:25 34.432615 -119.834915 72 16ft 0kts
29-Jan-19 11:26 34.432615 -119.834915 72 16ft 0kts
29-Jan-19 11:27 34.432615 -119.834915 72 16ft 0kts
29-Jan-19 11:28 34.432615 -119.834915 72 16ft 0kts
29-Jan-19 11:29 34.432615 -119.834915 72 16ft 0kts
29-Jan-19 11:30 34.432615 -119.834915 72 16ft 0kts
29-Jan-19 11:31 34.432588 -119.834757 184 16ft 0kts
29-Jan-19 11:32 34.432409 -119.834885 228 16ft 1kts
29-Jan-19 11:33 34.431655 -119.836639 249 16ft 8kts
29-Jan-19 11:34 34.430777 -119.839547 247 16ft 5kts
29-Jan-19 11:35 34.430696 -119.839784 247 16ft 0kts
29-Jan-19 11:36 34.430696 -119.839784 247 16ft 0kts
29-Jan-19 11:37 34.429651 -119.839983 162 16ft 44kts
29-Jan-19 11:38 34.398643 -119.832124 168 1339ft 140kts
29-Jan-19 11:39 34.355990 -119.821021 164 2913ft 170kts
29-Jan-19 11:40 34.314132 -119.794699 152 4489ft 171kts
29-Jan-19 11:41 34.271975 -119.765904 152 6046ft 179kts
29-Jan-19 11:42 34.228781 -119.734624 152 7578ft 187kts
29-Jan-19 11:43 34.181596 -119.699855 151 8037ft 227kts
29-Jan-19 11:44 34.126142 -119.659383 145 8019ft 246kts
29-Jan-19 11:45 34.143087 -119.607657 2 9664ft 195kts
29-Jan-19 11:46 34.194645 -119.599487 1 11070ft 195kts
29-Jan-19 11:47 34.246613 -119.585961 9 12433ft 200kts
29-Jan-19 11:48 34.296916 -119.569320 9 13900ft 203kts
29-Jan-19 11:49 34.347533 -119.552486 9 15295ft 207kts
29-Jan-19 11:50 34.400229 -119.534932 9 16567ft 211kts
29-Jan-19 11:51 34.457218 -119.515927 9 17773ft 217kts
29-Jan-19 11:52 34.516313 -119.496175 8 19207ft 220kts
29-Jan-19 11:53 34.574658 -119.476654 8 20471ft 225kts
29-Jan-19 11:54 34.632271 -119.457349 8 21629ft 230kts
29-Jan-19 11:55 34.692792 -119.437036 8 22884ft 234kts
29-Jan-19 11:56 34.753414 -119.416656 8 24060ft 238kts
29-Jan-19 11:57 34.816167 -119.395546 8 25029ft 245kts
29-Jan-19 11:58 34.881302 -119.373620 9 25064ft 275kts
29-Jan-19 11:59 34.955734 -119.348491 10 25062ft 285kts
29-Jan-19 12:00 35.011426 -119.329648 10 25059ft 287kts
29-Jan-19 12:01 35.089520 -119.303166 10 25060ft 288kts
29-Jan-19 12:02 35.155855 -119.280605 10 24492ft 274kts
29-Jan-19 12:03 35.221957 -119.258126 10 22993ft 249kts
29-Jan-19 12:04 35.284533 -119.236825 9 21519ft 239kts
29-Jan-19 12:05 35.343013 -119.216884 9 20120ft 235kts
29-Jan-19 12:06 35.402942 -119.196412 9 18679ft 233kts
29-Jan-19 12:07 35.462294 -119.176101 9 17248ft 232kts
29-Jan-19 12:08 35.519415 -119.156528 10 15869ft 232kts
29-Jan-19 12:09 35.578772 -119.136155 10 14436ft 232kts
29-Jan-19 12:10 35.629883 -119.118527 9 14001ft 201kts
29-Jan-19 12:11 35.689046 -119.098234 10 14038ft 237kts
29-Jan-19 12:12 35.755699 -119.075253 10 14035ft 258kts
29-Jan-19 12:13 35.823497 -119.051818 10 14034ft 263kts
29-Jan-19 12:14 35.891467 -119.028297 10 14036ft 264kts
29-Jan-19 12:15 35.961552 -119.043867 334 14037ft 251kts
29-Jan-19 12:16 36.028990 -119.075900 334 14036ft 251kts
29-Jan-19 12:17 36.096027 -119.107824 334 14038ft 251kts
29-Jan-19 12:18 36.153936 -119.135451 334 14042ft 251kts
29-Jan-19 12:19 36.210586 -119.162485 334 13114ft 220kts
29-Jan-19 12:20 36.261603 -119.186919 333 11624ft 199kts
29-Jan-19 12:21 36.314464 -119.212845 333 9996ft 188kts
29-Jan-19 12:22 36.368395 -119.238728 334 8403ft 181kts
29-Jan-19 12:23 36.414606 -119.260787 334 7391ft 166kts
29-Jan-19 12:24 36.455252 -119.280255 335 6563ft 178kts
29-Jan-19 12:25 36.501197 -119.302231 335 5773ft 194kts
29-Jan-19 12:26 36.552185 -119.327510 325 4950ft 193kts
29-Jan-19 12:27 36.583819 -119.375718 304 4361ft 190kts
29-Jan-19 12:28 36.614030 -119.430176 304 3580ft 200kts
29-Jan-19 12:29 36.646121 -119.488107 304 2890ft 205kts
29-Jan-19 12:30 36.679205 -119.546281 305 2194ft 208kts
29-Jan-19 12:31 36.713063 -119.605698 305 1963ft 215kts
29-Jan-19 12:32 36.743257 -119.658739 305 1249ft 165kts
29-Jan-19 12:33 36.763589 -119.694458 305 685ft 92kts
29-Jan-19 12:34 36.775670 -119.715701 308 337ft 22kts
29-Jan-19 12:35 36.776497 -119.718774 276 337ft 7kts
29-Jan-19 12:36 36.776359 -119.720535 214 337ft 8kts
29-Jan-19 12:37 36.774387 -119.721124 214 337ft 0kts
29-Jan-19 12:38 36.774683 -119.722006 303 337ft 7kts
29-Jan-19 12:39 36.774877 -119.723954 212 337ft 7kts
29-Jan-19 12:40 36.774758 -119.724006 151 337ft 0kts

Navigation Log

Ident Type
Flight plan parsing failed, navigation log unavailable